Time;durP1;ratioP1;P1;durP2;ratioP2;P2;SDS_P1;SDS_P2;PMS_P1;PMS_P2;Temp;Humidity;BMP_temperature;BMP_pressure;BME280_temperature;BME280_humidity;BME280_pressure;Samples;Min_cycle;Max_cycle;Signal;HPM_P1;HPM_P2
2022/01/19 00:00:12;;;;;;;6.05;5.43;;;0.40;99.90;;;;;;5072790;28;20738;-70
2022/01/19 00:02:39;;;;;;;6.85;5.72;;;0.40;99.90;;;;;;5072789;28;20262;-70
2022/01/19 00:05:08;;;;;;;8.02;6.10;;;0.40;99.90;;;;;;5073094;28;20262;-70
2022/01/19 00:07:37;;;;;;;6.80;5.40;;;0.40;99.90;;;;;;5073145;28;20310;-70
2022/01/19 00:10:09;;;;;;;6.72;5.90;;;0.30;99.90;;;;;;5072890;28;20236;-69
2022/01/19 00:12:36;;;;;;;7.40;5.75;;;0.30;99.90;;;;;;5073246;28;20190;-69
2022/01/19 00:15:04;;;;;;;9.23;5.72;;;0.20;99.90;;;;;;5072773;28;20258;-69
2022/01/19 00:17:31;;;;;;;12.20;5.03;;;0.20;99.90;;;;;;5074026;28;20231;-69
2022/01/19 00:19:57;;;;;;;6.30;5.68;;;0.10;99.90;;;;;;5077056;28;20230;-69
2022/01/19 00:22:24;;;;;;;6.82;6.15;;;0.10;99.90;;;;;;5077072;28;20231;-69
2022/01/19 00:24:53;;;;;;;10.45;6.47;;;0.00;99.90;;;;;;5077216;28;20219;-69
2022/01/19 00:27:19;;;;;;;8.93;5.55;;;0.00;99.90;;;;;;5076965;28;20302;-69
2022/01/19 00:29:46;;;;;;;5.93;5.40;;;0.00;99.90;;;;;;5076943;28;20239;-68
2022/01/19 00:32:13;;;;;;;6.15;5.30;;;-0.10;99.90;;;;;;5076891;28;20282;-69
2022/01/19 00:34:40;;;;;;;7.38;5.28;;;0.00;99.90;;;;;;5077035;28;20310;-69
2022/01/19 00:37:07;;;;;;;6.70;4.85;;;0.10;99.90;;;;;;5076482;28;20283;-69
2022/01/19 00:39:34;;;;;;;5.50;4.40;;;0.10;99.90;;;;;;5076607;28;20242;-69
2022/01/19 00:42:02;;;;;;;4.47;4.00;;;0.10;99.90;;;;;;5076459;28;20286;-69
2022/01/19 00:44:29;;;;;;;3.95;3.65;;;0.20;99.90;;;;;;5076159;28;20231;-69
2022/01/19 00:46:56;;;;;;;3.70;3.40;;;0.20;99.90;;;;;;5076406;28;20258;-69
2022/01/19 00:49:23;;;;;;;3.22;2.97;;;0.30;99.90;;;;;;5076257;28;20333;-69
2022/01/19 00:51:50;;;;;;;3.22;3.03;;;0.30;99.90;;;;;;5076204;28;20231;-69
2022/01/19 00:54:17;;;;;;;3.30;3.10;;;0.40;99.90;;;;;;5075965;28;20258;-69
2022/01/19 00:56:44;;;;;;;3.33;3.13;;;0.50;99.90;;;;;;5076609;28;20250;-69
2022/01/19 00:59:12;;;;;;;3.25;3.05;;;0.60;99.90;;;;;;5076025;28;20204;-68
2022/01/19 01:01:40;;;;;;;2.70;2.60;;;0.60;99.90;;;;;;5076122;28;20250;-68
2022/01/19 01:04:07;;;;;;;2.83;2.72;;;0.70;99.90;;;;;;5075707;28;20215;-68
2022/01/19 01:06:34;;;;;;;2.90;2.70;;;0.70;99.90;;;;;;5076024;28;20231;-68
2022/01/19 01:09:01;;;;;;;3.30;3.10;;;0.70;99.90;;;;;;5075729;28;20690;-68
2022/01/19 01:11:35;;;;;;;3.45;3.15;;;0.70;99.90;;;;;;5075602;28;20203;-68
2022/01/19 01:17:14;;;;;;;2.58;2.47;;;0.80;99.90;;;;;;5075709;28;20263;-69
2022/01/19 01:19:41;;;;;;;4.10;3.30;;;0.80;99.90;;;;;;5075822;28;20196;-68
2022/01/19 01:22:08;;;;;;;3.97;3.63;;;0.80;99.90;;;;;;5075792;28;20299;-68
2022/01/19 01:24:35;;;;;;;3.40;3.20;;;0.70;99.90;;;;;;5075688;28;20270;-68
2022/01/19 01:27:02;;;;;;;3.88;3.58;;;0.70;99.90;;;;;;5075600;28;20303;-68
2022/01/19 01:29:29;;;;;;;3.88;3.50;;;0.70;99.90;;;;;;5075252;28;20239;-68
2022/01/19 01:31:57;;;;;;;3.53;3.33;;;0.80;99.90;;;;;;5075558;28;20227;-68
2022/01/19 01:34:24;;;;;;;3.70;3.40;;;0.80;99.90;;;;;;5075462;28;20252;-69
2022/01/19 01:36:51;;;;;;;3.38;3.17;;;0.80;99.90;;;;;;5075151;28;20295;-68
2022/01/19 01:39:17;;;;;;;3.53;3.33;;;0.80;99.90;;;;;;5075396;28;20203;-68
2022/01/19 01:41:44;;;;;;;3.58;3.38;;;0.70;99.90;;;;;;5075379;28;20283;-68
2022/01/19 01:44:11;;;;;;;3.00;2.90;;;0.80;99.90;;;;;;5074549;28;20227;-68
2022/01/19 01:46:46;;;;;;;3.58;3.38;;;0.80;99.90;;;;;;5075155;28;20257;-70
2022/01/19 01:49:22;;;;;;;3.42;3.22;;;0.80;99.90;;;;;;5075288;28;20184;-70
2022/01/19 01:54:32;;;;;;;2.75;2.65;;;0.80;99.90;;;;;;5075209;28;20214;-70
2022/01/19 01:56:59;;;;;;;3.10;2.95;;;0.90;99.90;;;;;;5075114;28;20287;-70
2022/01/19 01:59:26;;;;;;;3.00;2.90;;;0.90;99.90;;;;;;5075181;28;20286;-70
2022/01/19 02:01:53;;;;;;;2.40;2.30;;;0.90;99.90;;;;;;5075077;28;20235;-70
2022/01/19 02:04:23;;;;;;;3.10;3.00;;;0.90;99.90;;;;;;5074613;28;20746;-69
2022/01/19 02:07:21;;;;;;;3.38;3.13;;;0.90;99.90;;;;;;5075285;28;20200;-69
2022/01/19 02:09:51;;;;;;;3.15;3.03;;;0.90;99.90;;;;;;5074923;28;20192;-69
2022/01/19 02:23:19;;;;;;;2.33;2.33;;;1.00;99.90;;;;;;5074396;28;20187;-69
2022/01/19 02:25:50;;;;;;;2.47;2.38;;;1.00;99.90;;;;;;5074626;28;20188;-69
2022/01/19 02:42:07;;;;;;;4.22;3.40;;;1.00;99.90;;;;;;5073414;28;20561;-69
2022/01/19 02:46:37;;;;;;;3.00;2.80;;;0.90;99.90;;;;;;5073674;28;20722;-69
2022/01/19 02:50:12;;;;;;;3.22;3.13;;;0.90;99.90;;;;;;5073837;28;20183;-69
2022/01/19 02:52:40;;;;;;;3.25;3.10;;;0.90;99.90;;;;;;5074057;28;20303;-69
2022/01/19 02:55:08;;;;;;;3.50;3.38;;;0.90;99.90;;;;;;5073730;28;20315;-69
2022/01/19 02:57:36;;;;;;;5.18;4.72;;;0.90;99.90;;;;;;5073703;28;20634;-69
2022/01/19 03:10:59;;;;;;;4.30;4.00;;;0.80;99.90;;;;;;5073820;28;20195;-68
2022/01/19 03:13:26;;;;;;;6.07;5.53;;;0.80;99.90;;;;;;5073602;28;20299;-68
2022/01/19 03:15:53;;;;;;;8.40;6.25;;;0.70;99.90;;;;;;5073574;28;20294;-69
2022/01/19 03:18:20;;;;;;;8.85;6.63;;;0.70;99.90;;;;;;5073647;28;20294;-68
2022/01/19 03:20:47;;;;;;;6.75;5.60;;;0.60;99.90;;;;;;5073535;28;20283;-68
2022/01/19 03:23:19;;;;;;;6.65;5.35;;;0.70;99.90;;;;;;5073155;28;20290;-68
2022/01/19 03:25:46;;;;;;;6.07;4.97;;;0.70;99.90;;;;;;5073224;28;20180;-68
2022/01/19 03:28:13;;;;;;;5.50;5.00;;;0.70;99.90;;;;;;5073357;28;20262;-68
2022/01/19 03:30:40;;;;;;;4.88;4.47;;;0.70;99.90;;;;;;5073378;28;20287;-68
2022/01/19 03:33:07;;;;;;;6.30;5.80;;;0.80;99.90;;;;;;5073302;28;20286;-68
2022/01/19 03:35:34;;;;;;;5.53;5.03;;;0.70;99.90;;;;;;5073332;28;20228;-68
2022/01/19 03:38:01;;;;;;;5.22;4.75;;;0.70;99.90;;;;;;5072955;28;20359;-68
2022/01/19 03:40:30;;;;;;;4.97;4.60;;;0.70;99.90;;;;;;5072941;28;20290;-68
2022/01/19 03:42:56;;;;;;;8.40;7.15;;;0.70;99.90;;;;;;5072941;28;20199;-68
2022/01/19 03:45:23;;;;;;;6.70;6.05;;;0.60;99.90;;;;;;5073008;28;20654;-68
2022/01/19 03:47:55;;;;;;;7.00;5.82;;;0.50;99.90;;;;;;5072962;28;20710;-68
2022/01/19 03:50:22;;;;;;;6.38;5.78;;;0.60;99.90;;;;;;5073296;28;20192;-68
2022/01/19 03:52:49;;;;;;;6.63;5.38;;;0.60;99.90;;;;;;5072740;28;20675;-68
2022/01/19 03:55:16;;;;;;;5.97;5.45;;;0.60;99.90;;;;;;5072902;28;20307;-68
2022/01/19 03:57:44;;;;;;;5.75;5.15;;;0.60;99.90;;;;;;5072780;28;20288;-68
2022/01/19 04:00:14;;;;;;;5.13;4.72;;;0.60;99.90;;;;;;5073117;28;20199;-68
2022/01/19 04:02:41;;;;;;;5.30;4.72;;;0.60;99.90;;;;;;5073129;28;20253;-68
2022/01/19 04:05:16;;;;;;;4.53;4.22;;;0.70;99.90;;;;;;5072731;28;20606;-68
2022/01/19 04:07:43;;;;;;;4.97;4.57;;;0.70;99.90;;;;;;5073063;28;20265;-68
2022/01/19 04:10:09;;;;;;;4.45;4.18;;;0.70;99.90;;;;;;5073022;28;20283;-68
2022/01/19 04:12:52;;;;;;;4.30;3.97;;;0.70;99.90;;;;;;5072960;28;20287;-68
2022/01/19 04:15:21;;;;;;;4.18;3.88;;;0.80;99.90;;;;;;5072936;28;20231;-68
2022/01/19 04:17:51;;;;;;;4.32;3.92;;;0.70;99.90;;;;;;5072684;28;20242;-68
2022/01/19 04:20:20;;;;;;;4.05;3.78;;;0.70;99.90;;;;;;5072957;28;20184;-68
2022/01/19 04:22:47;;;;;;;5.43;4.93;;;0.80;99.90;;;;;;5072625;28;20663;-68
2022/01/19 04:25:13;;;;;;;5.15;4.60;;;0.80;99.90;;;;;;5072942;28;20311;-69
2022/01/19 04:27:42;;;;;;;4.63;4.30;;;0.70;99.90;;;;;;5072790;28;20207;-69
2022/01/19 04:30:12;;;;;;;4.28;3.90;;;0.70;99.90;;;;;;5072491;28;20196;-68
2022/01/19 04:32:47;;;;;;;3.72;3.53;;;0.70;99.90;;;;;;5072528;28;20230;-69
2022/01/19 04:35:19;;;;;;;4.20;3.80;;;0.70;99.90;;;;;;5072625;28;20280;-69
2022/01/19 04:46:27;;;;;;;3.83;3.63;;;0.60;99.90;;;;;;5072714;28;20184;-68
2022/01/19 04:49:09;;;;;;;4.95;4.47;;;0.60;99.90;;;;;;5072562;28;20563;-68
2022/01/19 04:54:47;;;;;;;5.63;5.13;;;0.50;99.90;;;;;;5030348;28;20210;-68
2022/01/19 05:05:29;;;;;;;6.28;5.68;;;0.40;99.90;;;;;;5073746;28;20272;-68
2022/01/19 05:08:01;;;;;;;6.70;5.35;;;0.40;99.90;;;;;;5075755;28;20223;-68
2022/01/19 05:13:27;;;;;;;6.85;6.25;;;0.40;99.90;;;;;;5075764;28;20183;-69
2022/01/19 05:15:55;;;;;;;7.00;6.25;;;0.30;99.90;;;;;;5076106;28;20188;-68
2022/01/19 05:18:22;;;;;;;6.68;6.10;;;0.30;99.90;;;;;;5075642;28;20762;-68
2022/01/19 05:20:50;;;;;;;5.15;4.75;;;0.30;99.90;;;;;;5075571;28;20683;-68
2022/01/19 05:23:17;;;;;;;5.45;5.05;;;0.30;99.90;;;;;;5075685;28;20200;-69
2022/01/19 05:25:44;;;;;;;6.80;6.10;;;0.30;99.90;;;;;;5075631;28;20204;-69
2022/01/19 05:28:11;;;;;;;6.53;5.85;;;0.30;99.90;;;;;;5075470;28;20227;-70
2022/01/19 05:30:38;;;;;;;6.50;5.90;;;0.30;99.90;;;;;;5075549;28;20291;-68
2022/01/19 05:33:05;;;;;;;7.43;6.68;;;0.30;99.90;;;;;;5075467;28;20287;-69
2022/01/19 05:35:32;;;;;;;7.43;6.55;;;0.30;99.90;;;;;;5075144;28;20745;-69
2022/01/19 05:38:00;;;;;;;5.55;5.15;;;0.10;99.90;;;;;;5075504;28;20287;-69
2022/01/19 05:40:27;;;;;;;6.82;6.13;;;0.30;99.90;;;;;;5075129;28;20254;-69
2022/01/19 05:42:54;;;;;;;8.30;6.82;;;0.30;99.90;;;;;;5075397;28;20286;-69
2022/01/19 05:45:21;;;;;;;7.95;7.15;;;0.30;99.90;;;;;;5074931;28;20318;-69
2022/01/19 05:47:48;;;;;;;6.82;5.95;;;0.30;99.90;;;;;;5075403;28;20287;-68
2022/01/19 05:50:15;;;;;;;7.25;6.65;;;0.30;99.90;;;;;;5075337;28;20290;-68
2022/01/19 05:52:42;;;;;;;7.30;6.47;;;0.30;99.90;;;;;;5075239;28;20291;-68
2022/01/19 05:55:10;;;;;;;6.75;6.05;;;0.30;99.90;;;;;;5075189;28;20247;-68
2022/01/19 05:57:39;;;;;;;5.72;5.22;;;0.20;99.90;;;;;;5074836;28;20292;-67
2022/01/19 06:00:08;;;;;;;6.60;6.03;;;0.20;99.90;;;;;;5075116;28;20196;-68
2022/01/19 06:02:34;;;;;;;7.05;6.05;;;0.20;99.90;;;;;;5074798;28;20287;-67
2022/01/19 06:05:01;;;;;;;8.57;7.10;;;0.20;99.90;;;;;;5074891;28;20252;-68
2022/01/19 06:07:30;;;;;;;7.25;6.22;;;0.10;99.90;;;;;;5074883;28;20603;-68
2022/01/19 06:10:04;;;;;;;6.38;5.78;;;0.20;99.90;;;;;;5074562;28;20230;-68
2022/01/19 06:12:33;;;;;;;6.82;6.13;;;0.20;99.90;;;;;;5074888;28;20222;-68
2022/01/19 06:15:01;;;;;;;6.13;5.63;;;0.20;99.90;;;;;;5073315;28;20255;-68
2022/01/19 06:17:28;;;;;;;6.38;5.88;;;0.20;99.90;;;;;;5074857;28;20227;-68
2022/01/19 06:19:55;;;;;;;7.43;6.45;;;0.20;99.90;;;;;;5074718;28;20196;-68
2022/01/19 06:22:22;;;;;;;7.22;6.53;;;0.20;99.90;;;;;;5074828;28;20294;-68
2022/01/19 06:24:50;;;;;;;8.55;6.45;;;0.10;99.90;;;;;;5074278;28;20756;-68
2022/01/19 06:27:16;;;;;;;8.68;6.85;;;0.10;99.90;;;;;;5074541;28;20286;-68
2022/01/19 06:29:45;;;;;;;6.70;6.03;;;0.10;99.90;;;;;;5074428;28;20220;-69
2022/01/19 06:32:11;;;;;;;6.20;5.70;;;0.10;99.90;;;;;;5074467;28;20299;-70
2022/01/19 06:34:38;;;;;;;6.25;5.75;;;0.20;99.90;;;;;;5074116;28;20561;-70
2022/01/19 06:37:05;;;;;;;9.55;7.13;;;0.20;99.90;;;;;;5074582;28;20227;-69
2022/01/19 06:39:32;;;;;;;7.93;7.05;;;0.20;99.90;;;;;;5074247;28;20730;-69
2022/01/19 06:41:59;;;;;;;7.97;7.20;;;0.10;99.90;;;;;;5074426;28;20287;-69
2022/01/19 06:44:26;;;;;;;11.48;8.25;;;0.20;99.90;;;;;;5074069;28;20234;-70
2022/01/19 06:46:54;;;;;;;9.80;7.90;;;0.10;99.90;;;;;;5074358;28;20287;-70
2022/01/19 06:49:21;;;;;;;7.18;6.47;;;0.10;99.90;;;;;;5074303;28;20437;-70
2022/01/19 06:51:49;;;;;;;7.47;6.35;;;0.10;99.90;;;;;;5074304;28;20295;-70
2022/01/19 06:54:16;;;;;;;8.48;6.25;;;0.10;99.90;;;;;;5074238;28;20219;-70
2022/01/19 06:56:43;;;;;;;8.80;7.18;;;0.10;99.90;;;;;;5074119;28;20239;-70
2022/01/19 06:59:09;;;;;;;7.85;6.95;;;0.10;99.90;;;;;;5074375;28;20247;-70
2022/01/19 07:01:37;;;;;;;6.88;6.28;;;0.10;99.90;;;;;;5074289;28;20303;-69
2022/01/19 07:04:07;;;;;;;6.03;5.53;;;0.10;99.90;;;;;;5077879;28;20249;-70
2022/01/19 07:06:35;;;;;;;6.60;5.65;;;0.10;99.90;;;;;;5078852;28;20249;-69
2022/01/19 07:09:02;;;;;;;7.15;5.93;;;0.10;99.90;;;;;;5079373;28;20259;-69
2022/01/19 07:11:29;;;;;;;5.53;5.07;;;0.20;99.90;;;;;;5078340;28;20250;-71
2022/01/19 07:13:58;;;;;;;5.70;5.20;;;0.20;99.90;;;;;;5078120;28;20553;-71
2022/01/19 07:16:25;;;;;;;5.55;5.15;;;0.20;99.90;;;;;;5077677;28;20202;-71
2022/01/19 07:18:53;;;;;;;8.40;7.20;;;0.20;99.90;;;;;;5077594;28;20192;-72
2022/01/19 07:21:25;;;;;;;8.35;7.38;;;0.20;99.90;;;;;;5077898;28;20206;-72
2022/01/19 07:23:52;;;;;;;6.80;6.10;;;0.20;99.90;;;;;;5077452;28;20223;-72
2022/01/19 07:26:19;;;;;;;6.47;5.78;;;0.30;99.90;;;;;;5077400;28;20656;-72
2022/01/19 07:28:47;;;;;;;8.32;6.07;;;0.30;99.90;;;;;;5079028;28;20227;-72
2022/01/19 07:31:14;;;;;;;6.35;5.75;;;0.40;99.90;;;;;;5078314;28;20230;-72
2022/01/19 07:33:41;;;;;;;8.40;7.60;;;0.40;99.90;;;;;;5079160;28;20751;-72
2022/01/19 07:36:09;;;;;;;11.23;7.22;;;0.40;99.90;;;;;;5078894;28;20196;-72
2022/01/19 07:38:38;;;;;;;9.52;6.22;;;0.30;99.90;;;;;;5078993;28;20721;-72
2022/01/19 07:41:05;;;;;;;7.13;6.43;;;0.30;99.90;;;;;;5079511;28;20230;-72
2022/01/19 07:43:32;;;;;;;8.05;6.93;;;0.30;99.90;;;;;;5077393;28;20227;-72
2022/01/19 07:46:00;;;;;;;8.30;6.80;;;0.20;99.90;;;;;;5078672;28;20180;-70
2022/01/19 07:48:27;;;;;;;8.63;7.70;;;0.20;99.90;;;;;;5078859;28;20602;-70
2022/01/19 07:50:54;;;;;;;10.50;7.13;;;0.20;99.90;;;;;;5078947;28;20196;-70
2022/01/19 07:53:22;;;;;;;10.60;8.05;;;0.20;99.90;;;;;;5078045;28;20199;-70
2022/01/19 07:55:50;;;;;;;10.77;8.43;;;0.20;99.90;;;;;;5077273;28;20275;-72
2022/01/19 07:58:17;;;;;;;10.05;7.85;;;0.20;99.90;;;;;;5074888;28;20291;-72
2022/01/19 08:00:44;;;;;;;10.48;8.27;;;0.20;99.90;;;;;;5074201;28;20286;-72
2022/01/19 08:03:11;;;;;;;8.70;7.45;;;0.20;99.90;;;;;;5073973;28;20286;-72
2022/01/19 08:05:38;;;;;;;9.30;8.30;;;0.20;99.90;;;;;;5074277;28;20235;-72
2022/01/19 08:08:06;;;;;;;8.75;7.05;;;0.20;99.90;;;;;;5074927;28;20231;-72
2022/01/19 08:10:33;;;;;;;8.85;7.50;;;0.30;99.90;;;;;;5074655;28;20273;-72
2022/01/19 08:13:02;;;;;;;9.13;7.45;;;0.30;99.90;;;;;;5073945;28;20203;-72
2022/01/19 08:15:29;;;;;;;10.80;8.65;;;0.40;99.90;;;;;;5074147;28;20289;-72
2022/01/19 08:17:56;;;;;;;8.57;7.32;;;0.30;99.90;;;;;;5073750;28;20265;-72
2022/01/19 08:20:23;;;;;;;10.30;7.70;;;0.40;99.90;;;;;;5073887;28;20279;-72
2022/01/19 08:22:50;;;;;;;8.15;7.35;;;0.40;99.90;;;;;;5073901;28;20286;-72
2022/01/19 08:25:17;;;;;;;9.88;7.53;;;0.50;99.90;;;;;;5073883;28;20307;-72
2022/01/19 08:27:44;;;;;;;8.82;7.43;;;0.50;99.90;;;;;;5073597;28;20264;-72
2022/01/19 08:30:14;;;;;;;11.00;8.00;;;0.60;99.90;;;;;;5073857;28;20248;-72
2022/01/19 08:32:41;;;;;;;7.68;6.80;;;0.60;99.90;;;;;;5073963;28;20283;-72
2022/01/19 08:35:10;;;;;;;10.50;8.68;;;0.60;99.90;;;;;;5073518;28;20645;-72
2022/01/19 08:37:37;;;;;;;11.52;7.55;;;0.60;99.90;;;;;;5074395;28;20286;-72
2022/01/19 08:40:08;;;;;;;9.60;8.02;;;0.60;99.90;;;;;;5076742;28;20298;-72
2022/01/19 08:42:36;;;;;;;11.77;8.50;;;0.70;99.90;;;;;;5077342;28;20287;-72
2022/01/19 08:45:07;;;;;;;11.07;7.47;;;0.70;99.90;;;;;;5076897;28;20228;-72
2022/01/19 08:47:36;;;;;;;8.35;7.15;;;0.80;99.90;;;;;;5077233;28;20593;-72
2022/01/19 08:50:05;;;;;;;7.68;6.90;;;0.80;99.90;;;;;;5076920;28;20220;-72
2022/01/19 08:52:32;;;;;;;8.20;7.35;;;1.00;99.90;;;;;;5076885;28;20224;-72
2022/01/19 08:54:58;;;;;;;9.85;7.35;;;1.00;99.90;;;;;;5077062;28;20306;-72
2022/01/19 08:57:25;;;;;;;7.38;6.68;;;1.10;99.90;;;;;;5076973;28;20290;-72
2022/01/19 08:59:53;;;;;;;9.40;6.60;;;1.20;99.90;;;;;;5076912;28;20290;-72
2022/01/19 09:02:20;;;;;;;7.47;6.75;;;1.30;99.90;;;;;;5077094;28;20287;-72
2022/01/19 09:04:48;;;;;;;8.23;7.07;;;1.40;99.90;;;;;;5076724;28;20362;-72
2022/01/19 09:07:15;;;;;;;7.28;6.13;;;1.60;99.90;;;;;;5076754;28;20288;-72
2022/01/19 09:09:42;;;;;;;9.23;8.15;;;1.70;99.90;;;;;;5076882;28;20314;-71
2022/01/19 09:12:10;;;;;;;8.35;7.45;;;1.70;99.90;;;;;;5076349;28;20295;-71
2022/01/19 09:14:37;;;;;;;7.60;6.70;;;1.70;99.90;;;;;;5075966;28;20653;-71
2022/01/19 09:17:07;;;;;;;7.97;6.78;;;1.80;99.90;;;;;;5075924;28;20683;-71
2022/01/19 09:19:36;;;;;;;8.07;6.68;;;1.90;99.90;;;;;;5076245;28;20180;-71
2022/01/19 09:22:06;;;;;;;7.13;6.40;;;2.10;99.90;;;;;;5076064;28;20211;-71
2022/01/19 09:24:33;;;;;;;10.35;8.30;;;2.40;99.90;;;;;;5076175;28;20258;-71
2022/01/19 09:27:00;;;;;;;8.55;6.95;;;2.50;99.90;;;;;;5076060;28;20200;-71
2022/01/19 09:29:27;;;;;;;8.45;7.07;;;2.50;99.90;;;;;;5076075;28;20310;-71
2022/01/19 09:31:56;;;;;;;8.63;6.72;;;2.60;99.90;;;;;;5076532;28;20196;-71
2022/01/19 09:34:23;;;;;;;8.25;6.57;;;2.60;99.90;;;;;;5075879;28;20315;-71
2022/01/19 09:36:50;;;;;;;6.85;6.15;;;2.60;99.90;;;;;;5075595;28;20291;-71
2022/01/19 09:39:21;;;;;;;6.88;6.28;;;2.70;99.90;;;;;;5075949;28;20286;-71
2022/01/19 09:41:48;;;;;;;9.15;7.60;;;2.60;99.90;;;;;;5075852;28;20684;-71
2022/01/19 09:44:17;;;;;;;11.82;8.45;;;2.50;99.90;;;;;;5075154;28;20282;-71
2022/01/19 09:46:45;;;;;;;13.32;9.10;;;2.50;99.90;;;;;;5074653;28;20200;-71
2022/01/19 09:49:12;;;;;;;11.55;8.65;;;2.50;99.90;;;;;;5074105;28;20291;-71
2022/01/19 09:51:41;;;;;;;10.23;8.63;;;2.60;99.90;;;;;;5074259;28;20204;-71
2022/01/19 09:54:08;;;;;;;10.40;8.18;;;2.80;99.90;;;;;;5074737;28;20220;-71
2022/01/19 09:56:36;;;;;;;11.60;9.32;;;3.00;99.90;;;;;;5074202;28;20733;-71
2022/01/19 09:59:03;;;;;;;10.75;8.52;;;3.10;99.90;;;;;;5074346;28;20687;-71
2022/01/19 10:01:30;;;;;;;10.73;8.13;;;3.10;99.90;;;;;;5074628;28;20288;-71
2022/01/19 10:03:57;;;;;;;13.18;9.82;;;3.20;99.90;;;;;;5074446;28;20327;-71
2022/01/19 10:06:25;;;;;;;13.52;10.07;;;3.30;99.90;;;;;;5074397;28;20245;-71
2022/01/19 10:08:54;;;;;;;13.13;9.57;;;3.30;99.90;;;;;;5074759;28;20228;-71
2022/01/19 10:11:28;;;;;;;12.13;9.85;;;3.20;99.90;;;;;;5074195;28;20216;-71
2022/01/19 10:17:02;;;;;;;8.88;7.72;;;3.40;99.90;;;;;;5074300;28;20262;-71
2022/01/19 10:19:32;;;;;;;10.20;8.18;;;3.60;99.90;;;;;;5074239;28;20524;-71
2022/01/19 10:22:06;;;;;;;10.10;7.72;;;3.60;99.90;;;;;;5074169;28;20191;-71
2022/01/19 10:24:42;;;;;;;9.63;7.30;;;3.70;99.90;;;;;;5074104;28;20310;-71
2022/01/19 10:27:31;;;;;;;13.60;10.32;;;3.80;99.90;;;;;;5073939;28;20262;-69
2022/01/19 10:30:21;;;;;;;15.23;10.68;;;3.70;99.90;;;;;;5073564;28;20657;-69
2022/01/19 10:32:51;;;;;;;13.38;10.38;;;3.50;99.90;;;;;;5073862;28;20271;-69
2022/01/19 10:35:24;;;;;;;14.10;9.70;;;3.50;99.90;;;;;;5073638;28;20251;-69
2022/01/19 10:38:09;;;;;;;11.38;8.98;;;3.50;99.90;;;;;;5073597;28;20263;-69
2022/01/19 10:40:38;;;;;;;12.18;9.23;;;3.50;99.90;;;;;;5073602;28;20184;-69
2022/01/19 10:45:48;;;;;;;8.93;8.02;;;3.50;99.90;;;;;;5091661;28;20590;-71
2022/01/19 10:48:31;;;;;;;11.73;8.60;;;3.50;99.90;;;;;;5091356;28;20286;-70
2022/01/19 10:51:10;;;;;;;10.73;8.55;;;3.50;99.90;;;;;;5090821;28;20616;-70
2022/01/19 10:53:38;;;;;;;11.00;8.88;;;3.50;99.90;;;;;;5090965;28;20309;-70
2022/01/19 10:56:06;;;;;;;10.20;8.38;;;3.50;99.90;;;;;;5091091;28;20282;-70
2022/01/19 10:58:34;;;;;;;9.93;7.80;;;3.50;99.90;;;;;;5090992;28;20199;-70
2022/01/19 11:01:02;;;;;;;12.82;9.90;;;3.60;99.90;;;;;;5090872;28;20298;-70
2022/01/19 11:03:30;;;;;;;13.65;9.98;;;3.60;99.90;;;;;;5090668;28;20250;-71
2022/01/19 11:05:58;;;;;;;11.80;9.10;;;3.60;99.90;;;;;;5090836;28;20230;-71
2022/01/19 11:08:26;;;;;;;10.27;8.43;;;3.60;99.90;;;;;;5090730;28;20231;-71
2022/01/19 11:10:55;;;;;;;11.75;8.82;;;3.60;99.90;;;;;;5090683;28;20286;-71
2022/01/19 11:13:28;;;;;;;13.07;9.55;;;3.60;99.90;;;;;;5090727;28;20275;-71
2022/01/19 11:15:56;;;;;;;12.10;9.23;;;3.60;99.90;;;;;;5090734;28;20184;-71
2022/01/19 11:18:26;;;;;;;13.20;9.75;;;3.50;99.90;;;;;;5090545;28;20287;-71
2022/01/19 11:20:54;;;;;;;12.65;9.10;;;3.60;99.90;;;;;;5090545;28;20184;-71
2022/01/19 11:23:32;;;;;;;9.93;8.32;;;3.60;99.90;;;;;;5090407;28;20282;-71
2022/01/19 11:26:01;;;;;;;11.48;8.57;;;3.60;99.90;;;;;;5090615;28;20266;-72
2022/01/19 11:28:33;;;;;;;10.75;8.77;;;3.70;99.90;;;;;;5090635;28;20215;-72
2022/01/19 11:31:04;;;;;;;8.35;7.45;;;3.70;99.90;;;;;;5093767;28;20247;-72
2022/01/19 11:33:47;;;;;;;12.15;8.48;;;3.80;99.90;;;;;;5098745;28;20223;-70
2022/01/19 11:36:24;;;;;;;9.35;7.95;;;3.80;99.90;;;;;;5105757;22;20228;-71
2022/01/19 11:38:53;;;;;;;9.25;8.10;;;3.90;99.90;;;;;;5052320;28;20208;-74
2022/01/19 11:41:40;;;;;;;8.77;7.78;;;3.80;99.90;;;;;;5049877;28;20628;-73
2022/01/19 11:44:09;;;;;;;10.80;8.35;;;3.80;99.90;;;;;;5050159;28;20598;-73
2022/01/19 11:46:40;;;;;;;10.25;7.88;;;3.80;99.90;;;;;;5050302;28;20291;-73
2022/01/19 11:49:11;;;;;;;14.40;10.98;;;3.90;99.90;;;;;;5050415;28;20199;-73
2022/01/19 11:51:40;;;;;;;15.07;10.05;;;3.90;99.90;;;;;;5049993;28;20714;-75
2022/01/19 11:54:11;;;;;;;14.07;9.95;;;3.90;99.90;;;;;;5049555;28;20223;-73
2022/01/19 11:57:13;;;;;;;11.80;9.10;;;4.00;99.90;;;;;;5039315;28;20209;-73
2022/01/19 12:00:05;;;;;;;11.52;8.55;;;3.90;99.90;;;;;;5037852;28;20272;-73
2022/01/19 12:02:37;;;;;;;8.98;8.07;;;4.00;99.90;;;;;;5038424;28;20272;-72
2022/01/19 12:05:25;;;;;;;11.05;8.82;;;4.00;99.90;;;;;;5037057;28;20313;-73
2022/01/19 12:07:55;;;;;;;13.77;10.30;;;4.00;99.90;;;;;;5038397;28;20247;-71
2022/01/19 12:10:43;;;;;;;12.80;9.70;;;4.00;99.90;;;;;;5039151;28;20182;-71
2022/01/19 12:13:33;;;;;;;11.20;8.52;;;4.00;99.90;;;;;;5039277;28;20606;-71
2022/01/19 12:16:05;;;;;;;11.23;8.70;;;4.00;99.90;;;;;;5035987;28;20272;-71
2022/01/19 12:18:54;;;;;;;9.38;7.35;;;4.10;99.90;;;;;;5036090;28;20189;-71
2022/01/19 12:21:47;;;;;;;10.32;7.88;;;4.10;99.90;;;;;;5031353;28;20201;-71
2022/01/19 12:24:19;;;;;;;9.45;7.88;;;4.20;99.90;;;;;;5036024;28;20665;-71
2022/01/19 12:26:56;;;;;;;11.52;8.55;;;4.20;99.90;;;;;;5035691;28;20721;-71
2022/01/19 12:29:43;;;;;;;9.68;8.20;;;4.10;99.90;;;;;;5036272;28;20228;-71
2022/01/19 12:32:37;;;;;;;13.00;9.20;;;4.10;99.90;;;;;;5036114;28;20296;-72
2022/01/19 12:35:11;;;;;;;15.65;10.38;;;4.10;99.90;;;;;;5024971;28;20225;-72
2022/01/19 12:37:42;;;;;;;11.35;8.98;;;4.10;99.90;;;;;;5035226;28;20599;-72
2022/01/19 12:40:33;;;;;;;10.70;8.15;;;4.10;99.90;;;;;;5035620;28;20190;-72
2022/01/19 12:43:02;;;;;;;10.10;8.38;;;4.20;99.90;;;;;;5035539;28;20202;-72
2022/01/19 12:45:31;;;;;;;12.40;9.20;;;4.20;99.90;;;;;;5034962;28;20689;-72
2022/01/19 12:47:59;;;;;;;12.60;8.68;;;4.30;99.90;;;;;;5035338;28;20272;-72
2022/01/19 12:50:42;;;;;;;10.90;7.95;;;4.30;99.90;;;;;;5035292;28;20295;-72
2022/01/19 12:53:17;;;;;;;9.07;7.32;;;4.40;99.90;;;;;;5034918;28;20196;-72
2022/01/19 12:55:48;;;;;;;8.30;6.65;;;4.40;99.90;;;;;;5034861;28;20704;-72
2022/01/19 12:58:27;;;;;;;6.93;6.20;;;4.40;99.90;;;;;;5035141;28;20231;-72
2022/01/19 13:00:57;;;;;;;8.68;6.72;;;4.40;99.90;;;;;;5035084;28;20628;-72
2022/01/19 13:03:27;;;;;;;7.40;6.13;;;4.50;99.90;;;;;;5034905;28;20292;-72
2022/01/19 13:05:58;;;;;;;9.65;7.85;;;4.50;99.90;;;;;;5034805;28;20300;-72
2022/01/19 13:08:48;;;;;;;8.82;6.90;;;4.40;99.90;;;;;;5034069;28;20192;-72
2022/01/19 13:11:28;;;;;;;8.23;7.20;;;4.50;99.90;;;;;;5035994;28;20642;-71
2022/01/19 13:13:59;;;;;;;6.13;5.50;;;4.50;99.90;;;;;;5036961;28;20232;-71
2022/01/19 13:16:27;;;;;;;5.63;5.13;;;4.50;99.90;;;;;;5037274;28;20268;-71
2022/01/19 13:19:01;;;;;;;7.15;5.47;;;4.50;99.90;;;;;;5036360;28;20229;-71
2022/01/19 13:21:28;;;;;;;5.35;4.85;;;4.50;99.90;;;;;;5037749;28;20182;-71
2022/01/19 13:23:59;;;;;;;5.22;4.82;;;4.50;99.90;;;;;;5037134;28;20229;-71
2022/01/19 13:26:40;;;;;;;4.13;3.85;;;4.60;99.90;;;;;;5034677;28;20299;-71
2022/01/19 13:29:21;;;;;;;6.50;4.93;;;4.60;99.90;;;;;;5034330;28;20276;-71
2022/01/19 13:32:11;;;;;;;5.00;4.50;;;4.60;99.90;;;;;;5034342;28;20220;-71
2022/01/19 13:34:56;;;;;;;4.80;4.30;;;4.60;99.90;;;;;;5030339;28;20275;-71
2022/01/19 13:37:24;;;;;;;4.13;3.72;;;4.60;99.90;;;;;;5034014;28;20724;-71
2022/01/19 13:39:58;;;;;;;4.22;3.85;;;4.60;99.90;;;;;;5034199;28;20209;-71
2022/01/19 13:42:37;;;;;;;4.55;3.72;;;4.60;99.90;;;;;;5034164;28;20217;-71
2022/01/19 13:45:10;;;;;;;4.18;3.72;;;4.60;99.90;;;;;;5033984;28;20264;-71
2022/01/19 13:48:03;;;;;;;3.90;3.60;;;4.60;99.90;;;;;;5034111;28;20192;-71
2022/01/19 13:50:30;;;;;;;3.45;3.25;;;4.60;99.90;;;;;;5034104;28;20200;-71
2022/01/19 13:52:57;;;;;;;3.00;2.80;;;4.60;99.90;;;;;;5033979;28;20292;-71
2022/01/19 13:55:25;;;;;;;2.40;2.30;;;4.60;99.90;;;;;;5033915;28;20308;-71
2022/01/19 13:58:03;;;;;;;3.22;3.03;;;4.60;99.90;;;;;;5033523;28;20640;-71
2022/01/19 14:00:29;;;;;;;3.55;3.25;;;4.50;99.90;;;;;;5033863;28;20281;-71
2022/01/19 14:03:00;;;;;;;2.70;2.50;;;4.50;99.90;;;;;;5033788;28;20292;-71
2022/01/19 14:05:38;;;;;;;4.13;3.38;;;4.50;99.90;;;;;;5034192;28;20217;-71
2022/01/19 14:08:05;;;;;;;3.17;2.97;;;4.60;99.90;;;;;;5033733;28;20288;-71
2022/01/19 14:10:48;;;;;;;3.50;3.20;;;4.50;99.90;;;;;;5033702;28;20288;-71
2022/01/19 14:13:27;;;;;;;4.90;3.60;;;4.50;99.90;;;;;;5033842;28;20288;-71
2022/01/19 14:15:54;;;;;;;3.58;3.28;;;4.50;99.90;;;;;;5033805;28;20189;-71
2022/01/19 14:18:21;;;;;;;2.65;2.55;;;4.50;99.90;;;;;;5033408;28;20296;-71
2022/01/19 14:21:05;;;;;;;2.78;2.65;;;4.50;99.90;;;;;;5033546;28;20197;-71
2022/01/19 14:23:32;;;;;;;2.92;2.78;;;4.40;99.90;;;;;;5033367;28;20304;-71